createdAt,value
2023-03-31T00:01:53.076Z,88.48
2023-03-31T00:04:24.333Z,88.29
2023-03-31T00:06:54.687Z,88.34
2023-03-31T00:09:22.221Z,88.74
2023-03-31T00:11:52.401Z,88.66
2023-03-31T00:14:20.202Z,89.00
2023-03-31T00:16:47.117Z,89.00
2023-03-31T00:19:20.807Z,89.64
2023-03-31T00:21:48.229Z,89.89
2023-03-31T00:24:15.726Z,89.91
2023-03-31T00:26:42.853Z,89.99
2023-03-31T00:29:10.112Z,90.29
2023-03-31T00:31:39.040Z,90.61
2023-03-31T00:34:06.423Z,91.12
2023-03-31T00:36:36.954Z,91.96
2023-03-31T00:39:09.604Z,92.20
2023-03-31T00:41:37.783Z,93.41
2023-03-31T00:44:27.988Z,93.51
2023-03-31T00:47:08.129Z,94.08
2023-03-31T00:49:48.738Z,94.74
2023-03-31T00:52:31.112Z,94.92
2023-03-31T00:55:00.933Z,95.31
2023-03-31T00:57:28.651Z,95.64
2023-03-31T00:59:58.951Z,95.08
2023-03-31T01:02:25.832Z,95.62
2023-03-31T01:04:59.429Z,95.75
2023-03-31T01:07:33.896Z,96.12
2023-03-31T01:10:01.789Z,96.18
2023-03-31T01:12:28.711Z,96.60
2023-03-31T01:14:55.586Z,96.67
2023-03-31T01:17:22.699Z,96.88
2023-03-31T01:20:12.776Z,97.00
2023-03-31T01:22:59.608Z,97.38
2023-03-31T01:25:34.116Z,97.17
2023-03-31T01:28:03.727Z,97.52
2023-03-31T01:30:37.610Z,97.65
2023-03-31T01:33:36.153Z,97.92
2023-03-31T01:36:15.297Z,98.12
2023-03-31T01:39:01.256Z,98.29
2023-03-31T01:41:35.922Z,98.54
2023-03-31T01:44:28.944Z,98.46
2023-03-31T01:47:07.137Z,98.95
2023-03-31T01:49:41.543Z,98.86
2023-03-31T01:52:23.323Z,99.07
2023-03-31T01:54:52.200Z,99.30
2023-03-31T01:57:35.082Z,99.28
2023-03-31T02:00:12.735Z,99.32
2023-03-31T02:02:44.666Z,99.44
2023-03-31T02:05:13.978Z,99.17
2023-03-31T02:07:48.297Z,99.17
2023-03-31T02:10:15.121Z,99.28
2023-03-31T02:12:42.575Z,98.94
2023-03-31T02:15:11.789Z,98.91
2023-03-31T02:17:40.318Z,98.60
2023-03-31T02:20:11.667Z,98.34
2023-03-31T02:22:40.419Z,98.59
2023-03-31T02:25:08.543Z,98.77
2023-03-31T02:27:40.580Z,98.55
2023-03-31T02:30:08.218Z,98.35
2023-03-31T02:32:44.510Z,98.88
2023-03-31T02:35:13.659Z,98.38
2023-03-31T02:37:40.414Z,98.26
2023-03-31T02:40:10.648Z,97.97
2023-03-31T02:42:38.819Z,97.99
2023-03-31T02:45:06.837Z,97.39
2023-03-31T02:47:33.859Z,97.30
2023-03-31T02:50:00.918Z,97.41
2023-03-31T02:52:42.932Z,97.44
2023-03-31T02:55:28.297Z,97.55
2023-03-31T02:58:01.049Z,97.49
2023-03-31T03:01:01.444Z,97.53
2023-03-31T03:03:37.856Z,97.83
2023-03-31T03:06:32.598Z,97.71
2023-03-31T03:09:30.218Z,97.77
2023-03-31T03:12:06.093Z,98.01
2023-03-31T03:14:45.082Z,98.34
2023-03-31T03:17:19.018Z,98.77
2023-03-31T03:19:55.956Z,98.96
2023-03-31T03:22:23.295Z,98.83
2023-03-31T03:24:50.099Z,99.58
2023-03-31T03:27:17.694Z,99.29
2023-03-31T03:29:44.576Z,99.84
2023-03-31T03:32:11.453Z,99.93
2023-03-31T03:34:38.378Z,100.00
2023-03-31T03:37:05.813Z,100.00
2023-03-31T03:39:32.646Z,100.00
2023-03-31T03:41:59.458Z,100.00
2023-03-31T03:44:26.166Z,100.00
2023-03-31T03:46:52.933Z,100.00
2023-03-31T03:49:20.782Z,100.00
2023-03-31T03:51:47.495Z,100.00
2023-03-31T03:54:14.356Z,100.00
2023-03-31T03:56:41.204Z,100.00
2023-03-31T03:59:07.924Z,100.00
2023-03-31T04:01:34.731Z,100.00
2023-03-31T04:04:01.957Z,100.00
2023-03-31T04:06:28.740Z,100.00
2023-03-31T04:08:55.571Z,100.00
2023-03-31T04:11:22.592Z,100.00
2023-03-31T04:13:49.385Z,99.97
2023-03-31T04:16:16.994Z,99.50
2023-03-31T04:18:43.880Z,100.00
2023-03-31T04:21:12.493Z,99.86
2023-03-31T04:23:47.126Z,100.00
2023-03-31T04:26:14.622Z,100.00
2023-03-31T04:28:42.992Z,100.00
2023-03-31T04:31:10.375Z,100.00
2023-03-31T04:33:38.953Z,100.00
2023-03-31T04:36:18.089Z,100.00
2023-03-31T04:38:51.155Z,100.00
2023-03-31T04:41:18.367Z,100.00
2023-03-31T04:43:45.500Z,100.00
2023-03-31T04:46:12.300Z,100.00
2023-03-31T04:48:39.272Z,100.00
2023-03-31T04:51:06.086Z,100.00
2023-03-31T04:53:32.840Z,99.98
2023-03-31T04:55:59.686Z,99.89
2023-03-31T04:58:26.500Z,100.00
2023-03-31T05:00:53.512Z,100.00
2023-03-31T05:03:20.782Z,99.68
2023-03-31T05:05:47.663Z,99.35
2023-03-31T05:08:14.410Z,99.17
2023-03-31T05:10:41.258Z,99.15
2023-03-31T05:13:10.502Z,99.68
2023-03-31T05:15:40.785Z,99.72
2023-03-31T05:18:08.224Z,99.66
2023-03-31T05:20:35.051Z,99.68
2023-03-31T05:23:02.151Z,99.57
2023-03-31T05:25:33.036Z,99.43
2023-03-31T05:28:00.882Z,99.21
2023-03-31T05:30:28.139Z,99.41
2023-03-31T05:32:54.977Z,99.56
2023-03-31T05:35:21.869Z,99.79
2023-03-31T05:37:48.702Z,99.66
2023-03-31T05:40:15.590Z,99.16
2023-03-31T05:42:42.315Z,98.77
2023-03-31T05:45:09.570Z,98.39
2023-03-31T05:47:36.977Z,98.97
2023-03-31T05:50:07.940Z,98.84
2023-03-31T05:52:35.445Z,98.91
2023-03-31T05:55:02.411Z,98.95
2023-03-31T05:57:29.299Z,99.30
2023-03-31T05:59:56.305Z,99.31
2023-03-31T06:02:23.328Z,99.16
2023-03-31T06:04:50.512Z,98.14
2023-03-31T06:07:18.040Z,98.29
2023-03-31T06:09:45.789Z,98.00
2023-03-31T06:12:12.636Z,98.28
2023-03-31T06:14:39.492Z,98.24
2023-03-31T06:17:07.261Z,98.44
2023-03-31T06:19:34.281Z,98.37
2023-03-31T06:22:01.724Z,98.62
2023-03-31T06:24:28.541Z,98.80
2023-03-31T06:26:55.343Z,98.41
2023-03-31T06:29:22.310Z,98.86
2023-03-31T06:31:49.094Z,98.51
2023-03-31T06:34:16.657Z,98.55
2023-03-31T06:36:44.589Z,98.70
2023-03-31T06:39:11.491Z,98.68
2023-03-31T06:41:39.265Z,99.05
2023-03-31T06:44:06.384Z,99.26
2023-03-31T06:46:33.174Z,99.52
2023-03-31T06:48:59.910Z,99.36
2023-03-31T06:51:26.841Z,99.12
2023-03-31T06:53:53.668Z,99.14
2023-03-31T06:56:20.467Z,98.89
2023-03-31T06:58:47.325Z,98.44
2023-03-31T07:01:14.126Z,98.43
2023-03-31T07:03:41.022Z,97.99
2023-03-31T07:06:08.083Z,97.73
2023-03-31T07:08:34.906Z,98.09
2023-03-31T07:11:01.798Z,98.32
2023-03-31T07:13:28.771Z,98.19
2023-03-31T07:15:55.952Z,98.48
2023-03-31T07:18:26.595Z,98.87
2023-03-31T07:20:53.434Z,99.14
2023-03-31T07:23:20.915Z,98.95
2023-03-31T07:25:47.812Z,98.44
2023-03-31T07:28:14.662Z,98.14
2023-03-31T07:30:41.512Z,98.96
2023-03-31T07:33:08.649Z,99.37
2023-03-31T07:35:38.934Z,99.54
2023-03-31T07:38:05.796Z,99.07
2023-03-31T07:40:32.631Z,98.94
2023-03-31T07:42:59.469Z,98.16
2023-03-31T07:45:26.330Z,98.14
2023-03-31T07:47:53.315Z,98.52
2023-03-31T07:50:20.699Z,97.82
2023-03-31T07:52:47.595Z,97.83
2023-03-31T07:55:14.550Z,97.64
2023-03-31T07:57:42.448Z,97.59
2023-03-31T08:00:12.502Z,97.69
2023-03-31T08:02:41.144Z,97.74
2023-03-31T08:05:08.319Z,97.84
2023-03-31T08:07:39.500Z,97.71
2023-03-31T08:10:07.149Z,97.43
2023-03-31T08:12:34.089Z,97.62
2023-03-31T08:15:01.314Z,97.16
2023-03-31T08:17:28.313Z,97.26
2023-03-31T08:19:55.296Z,97.12
2023-03-31T08:22:23.443Z,97.68
2023-03-31T08:24:50.233Z,97.79
2023-03-31T08:27:17.288Z,98.15
2023-03-31T08:29:44.138Z,98.15
2023-03-31T08:32:11.107Z,98.56
2023-03-31T08:34:38.306Z,98.57
2023-03-31T08:37:06.040Z,98.49
2023-03-31T08:39:34.248Z,98.80
2023-03-31T08:42:03.337Z,98.93
2023-03-31T08:44:43.130Z,99.12
2023-03-31T08:47:13.878Z,99.50
2023-03-31T08:49:49.365Z,99.57
2023-03-31T08:52:19.037Z,99.27
2023-03-31T08:54:49.593Z,99.63
2023-03-31T08:57:22.382Z,100.00
2023-03-31T08:59:51.209Z,100.00
2023-03-31T09:02:32.636Z,99.26
2023-03-31T09:05:24.287Z,99.47
2023-03-31T09:08:06.381Z,99.98
2023-03-31T09:10:38.541Z,100.00
2023-03-31T09:13:14.345Z,100.00
2023-03-31T09:15:49.153Z,100.00
2023-03-31T09:18:35.637Z,98.78
2023-03-31T09:21:13.012Z,97.69
2023-03-31T09:23:43.540Z,97.71
2023-03-31T09:26:19.062Z,96.98
2023-03-31T09:28:46.299Z,96.30
2023-03-31T09:31:17.892Z,95.65
2023-03-31T09:33:48.436Z,95.31
2023-03-31T09:36:17.567Z,95.08
2023-03-31T09:38:45.043Z,94.89
2023-03-31T09:41:12.340Z,94.46
2023-03-31T09:43:40.146Z,94.12
2023-03-31T09:46:26.611Z,93.51
2023-03-31T09:49:24.320Z,92.87
2023-03-31T09:52:26.651Z,93.10
2023-03-31T09:54:58.311Z,93.11
2023-03-31T09:57:31.261Z,92.98
2023-03-31T10:00:14.729Z,92.62
2023-03-31T10:02:45.872Z,92.74
2023-03-31T10:05:26.130Z,92.91
2023-03-31T10:07:54.750Z,93.22
2023-03-31T10:10:31.374Z,93.41
2023-03-31T10:12:58.844Z,94.42
2023-03-31T10:15:28.931Z,94.62
2023-03-31T10:17:56.001Z,94.24
2023-03-31T10:20:38.423Z,94.19
2023-03-31T10:23:15.751Z,94.92
2023-03-31T10:25:42.663Z,94.53
2023-03-31T10:28:14.036Z,93.87
2023-03-31T10:30:42.131Z,94.27
2023-03-31T10:33:22.003Z,93.91
2023-03-31T10:35:51.234Z,94.02
2023-03-31T10:38:25.295Z,93.60
2023-03-31T10:40:55.979Z,93.35
2023-03-31T10:43:47.867Z,93.04
2023-03-31T10:46:14.715Z,93.68
2023-03-31T10:48:42.344Z,93.64
2023-03-31T10:51:41.150Z,93.27
2023-03-31T10:54:09.067Z,94.33
2023-03-31T10:56:50.784Z,94.20
2023-03-31T10:59:52.169Z,94.55
2023-03-31T11:02:37.489Z,91.91
2023-03-31T11:05:22.672Z,92.01
2023-03-31T11:08:05.343Z,93.24
2023-03-31T11:10:35.102Z,94.22
2023-03-31T11:13:23.728Z,93.40
2023-03-31T11:15:59.538Z,97.38
2023-03-31T11:19:05.343Z,94.67
2023-03-31T11:21:51.426Z,94.06
2023-03-31T11:24:33.991Z,92.68
2023-03-31T11:27:03.554Z,90.94
2023-03-31T11:29:38.418Z,87.95
2023-03-31T11:32:25.926Z,83.39
2023-03-31T11:34:58.782Z,80.81
2023-03-31T11:37:47.765Z,80.57
2023-03-31T11:40:17.179Z,81.51
2023-03-31T11:42:51.271Z,84.11
2023-03-31T11:45:44.351Z,82.25
2023-03-31T11:48:17.225Z,78.67
2023-03-31T11:50:44.185Z,76.18
2023-03-31T11:53:17.808Z,76.34
2023-03-31T11:55:45.879Z,75.84
2023-03-31T11:58:19.045Z,74.05
2023-03-31T12:00:52.858Z,71.44
2023-03-31T12:03:41.561Z,70.06
2023-03-31T12:06:17.759Z,70.21
2023-03-31T12:09:05.801Z,68.48
2023-03-31T12:11:38.582Z,68.16
2023-03-31T12:14:29.880Z,67.96
2023-03-31T12:17:04.816Z,68.33
2023-03-31T12:19:43.782Z,66.77
2023-03-31T12:22:12.231Z,66.02
2023-03-31T12:24:39.105Z,66.55
2023-03-31T12:27:15.004Z,65.50
2023-03-31T12:30:01.758Z,65.87
2023-03-31T12:32:43.671Z,66.04
2023-03-31T12:35:16.778Z,66.20
2023-03-31T12:38:28.318Z,65.59
2023-03-31T12:41:10.188Z,65.22
2023-03-31T12:44:01.199Z,65.48
2023-03-31T12:46:36.979Z,66.23
2023-03-31T12:49:03.826Z,65.95
2023-03-31T12:51:33.132Z,66.57
2023-03-31T12:54:08.629Z,65.81
2023-03-31T12:57:00.708Z,65.28
2023-03-31T12:59:44.023Z,65.88
2023-03-31T13:02:16.694Z,64.18
2023-03-31T13:04:43.931Z,61.75
2023-03-31T13:07:34.457Z,60.71
2023-03-31T13:10:19.959Z,59.18
2023-03-31T13:13:12.356Z,58.84
2023-03-31T13:15:39.258Z,58.21
2023-03-31T13:18:07.257Z,57.76
2023-03-31T13:20:42.341Z,57.69
2023-03-31T13:23:12.133Z,57.98
2023-03-31T13:25:39.057Z,57.54
2023-03-31T13:28:14.319Z,57.31
2023-03-31T13:30:41.557Z,57.09
2023-03-31T13:33:18.338Z,57.44
2023-03-31T13:35:47.963Z,57.70
2023-03-31T13:38:30.634Z,58.33
2023-03-31T13:41:18.520Z,58.02
2023-03-31T13:43:48.920Z,57.91
2023-03-31T13:46:26.605Z,57.73
2023-03-31T13:49:16.364Z,57.93
2023-03-31T13:51:47.386Z,58.06
2023-03-31T13:54:47.553Z,58.06
2023-03-31T13:57:40.039Z,57.96
2023-03-31T14:00:28.834Z,57.98
2023-03-31T14:03:20.751Z,57.77
2023-03-31T14:05:57.098Z,58.13
2023-03-31T14:08:42.564Z,58.72
2023-03-31T14:11:16.019Z,59.19
2023-03-31T14:13:42.825Z,59.25
2023-03-31T14:16:09.839Z,59.28
2023-03-31T14:18:38.764Z,59.06
2023-03-31T14:21:18.092Z,59.50
2023-03-31T14:24:05.254Z,59.62
2023-03-31T14:26:31.966Z,59.70
2023-03-31T14:29:13.992Z,59.48
2023-03-31T14:31:48.890Z,59.42
2023-03-31T14:34:34.810Z,59.43
2023-03-31T14:37:04.730Z,59.87
2023-03-31T14:39:33.207Z,59.95
2023-03-31T14:42:03.051Z,59.76
2023-03-31T14:44:30.113Z,60.02
2023-03-31T14:46:58.589Z,59.75
2023-03-31T14:49:25.636Z,59.81
2023-03-31T14:51:53.319Z,59.83
2023-03-31T14:54:21.267Z,60.11
2023-03-31T14:56:53.264Z,60.05
2023-03-31T14:59:30.618Z,60.01
2023-03-31T15:01:58.514Z,60.03
2023-03-31T15:04:39.634Z,60.34
2023-03-31T15:07:09.074Z,60.03
2023-03-31T15:09:36.578Z,60.20
2023-03-31T15:12:05.513Z,59.76
2023-03-31T15:14:34.686Z,60.08
2023-03-31T15:17:01.841Z,59.95
2023-03-31T15:19:35.413Z,59.91
2023-03-31T15:22:08.365Z,59.96
2023-03-31T15:24:35.256Z,60.13
2023-03-31T15:27:36.607Z,60.10
2023-03-31T15:30:08.462Z,60.10
2023-03-31T15:32:36.954Z,60.04
2023-03-31T15:35:18.727Z,59.83
2023-03-31T15:37:48.366Z,60.24
2023-03-31T15:40:22.092Z,60.08
2023-03-31T15:43:01.699Z,60.07
2023-03-31T15:45:53.586Z,59.99
2023-03-31T15:48:29.912Z,59.89
2023-03-31T15:51:20.914Z,60.00
2023-03-31T15:53:51.142Z,59.77
2023-03-31T15:56:42.109Z,60.17
2023-03-31T15:59:27.486Z,59.58
2023-03-31T16:02:00.043Z,60.00
2023-03-31T16:04:36.034Z,59.93
2023-03-31T16:07:05.672Z,60.11
2023-03-31T16:09:52.624Z,60.06
2023-03-31T16:12:39.134Z,59.69
2023-03-31T16:15:16.080Z,59.83
2023-03-31T16:18:06.823Z,59.61
2023-03-31T16:20:37.526Z,59.75
2023-03-31T16:23:16.001Z,59.73
2023-03-31T16:25:42.993Z,59.71
2023-03-31T16:28:13.139Z,59.96
2023-03-31T16:30:41.632Z,59.99
2023-03-31T16:33:12.959Z,59.98
2023-03-31T16:35:41.921Z,59.94
2023-03-31T16:38:10.637Z,60.13
2023-03-31T16:40:42.030Z,60.34
2023-03-31T16:43:21.777Z,60.45
2023-03-31T16:45:50.065Z,60.26
2023-03-31T16:48:17.874Z,60.67
2023-03-31T16:50:49.272Z,60.82
2023-03-31T16:53:17.447Z,60.72
2023-03-31T16:55:44.229Z,60.80
2023-03-31T16:58:11.586Z,61.02
2023-03-31T17:00:40.256Z,60.82
2023-03-31T17:03:08.283Z,60.35
2023-03-31T17:05:56.323Z,60.36
2023-03-31T17:08:26.455Z,59.96
2023-03-31T17:10:55.553Z,60.14
2023-03-31T17:13:22.376Z,60.40
2023-03-31T17:15:49.631Z,60.47
2023-03-31T17:18:17.695Z,59.98
2023-03-31T17:20:44.756Z,59.92
2023-03-31T17:23:12.064Z,60.11
2023-03-31T17:25:38.905Z,60.11
2023-03-31T17:28:05.948Z,60.02
2023-03-31T17:30:35.206Z,59.67
2023-03-31T17:33:02.024Z,60.24
2023-03-31T17:35:28.927Z,60.47
2023-03-31T17:37:55.755Z,60.28
2023-03-31T17:40:26.913Z,60.81
2023-03-31T17:42:54.829Z,60.80
2023-03-31T17:45:21.831Z,60.94
2023-03-31T17:47:48.814Z,60.93
2023-03-31T17:50:15.836Z,60.98
2023-03-31T17:52:43.187Z,61.46
2023-03-31T17:55:10.288Z,61.33
2023-03-31T17:57:37.414Z,61.26
2023-03-31T18:00:06.130Z,61.57
2023-03-31T18:02:33.402Z,61.69
2023-03-31T18:05:00.857Z,61.92
2023-03-31T18:07:28.502Z,62.07
2023-03-31T18:09:55.482Z,61.82
2023-03-31T18:12:22.299Z,62.53
2023-03-31T18:14:49.682Z,62.44
2023-03-31T18:17:16.848Z,62.52
2023-03-31T18:19:43.612Z,62.52
2023-03-31T18:22:10.865Z,62.70
2023-03-31T18:24:38.774Z,62.72
2023-03-31T18:27:05.745Z,62.74
2023-03-31T18:29:32.670Z,62.66
2023-03-31T18:31:59.908Z,62.90
2023-03-31T18:34:26.852Z,63.12
2023-03-31T18:36:54.011Z,63.54
2023-03-31T18:39:20.927Z,63.27
2023-03-31T18:41:48.100Z,63.67
2023-03-31T18:44:17.490Z,63.22
2023-03-31T18:46:45.131Z,63.24
2023-03-31T18:49:12.158Z,63.58
2023-03-31T18:51:38.889Z,63.21
2023-03-31T18:54:05.929Z,63.50
2023-03-31T18:56:33.034Z,63.73
2023-03-31T18:58:59.771Z,63.60
2023-03-31T19:01:27.430Z,63.68
2023-03-31T19:03:54.352Z,63.85
2023-03-31T19:06:22.523Z,63.82
2023-03-31T19:08:49.526Z,64.09
2023-03-31T19:11:17.032Z,64.41
2023-03-31T19:13:44.085Z,64.58
2023-03-31T19:16:11.924Z,64.34
2023-03-31T19:18:38.769Z,64.81
2023-03-31T19:21:05.603Z,64.39
2023-03-31T19:23:33.192Z,64.37
2023-03-31T19:26:00.600Z,64.69
2023-03-31T19:28:27.853Z,64.70
2023-03-31T19:30:56.532Z,64.69
2023-03-31T19:33:23.897Z,64.99
2023-03-31T19:35:51.170Z,64.69
2023-03-31T19:38:19.060Z,65.05
2023-03-31T19:40:45.838Z,64.98
2023-03-31T19:43:19.497Z,65.51
2023-03-31T19:45:50.264Z,65.38
2023-03-31T19:48:17.656Z,65.19
2023-03-31T19:50:51.453Z,65.42
2023-03-31T19:53:18.729Z,65.27
2023-03-31T19:55:53.923Z,65.58
2023-03-31T19:58:20.867Z,65.85
2023-03-31T20:00:47.636Z,65.91
2023-03-31T20:03:14.749Z,65.66
2023-03-31T20:05:41.611Z,65.79
2023-03-31T20:08:08.515Z,66.02
2023-03-31T20:10:35.403Z,65.96
2023-03-31T20:13:03.105Z,65.85
2023-03-31T20:15:30.049Z,66.24
2023-03-31T20:17:57.252Z,65.85
2023-03-31T20:20:25.066Z,66.05
2023-03-31T20:22:51.812Z,65.99
2023-03-31T20:25:18.649Z,66.51
2023-03-31T20:27:45.849Z,66.42
2023-03-31T20:30:12.772Z,66.78
2023-03-31T20:32:40.066Z,66.60
2023-03-31T20:35:07.240Z,66.61
2023-03-31T20:37:34.280Z,66.45
2023-03-31T20:40:01.254Z,66.79
2023-03-31T20:42:28.100Z,66.86
2023-03-31T20:44:54.998Z,67.10
2023-03-31T20:47:22.144Z,66.88
2023-03-31T20:49:49.390Z,67.02
2023-03-31T20:52:16.141Z,67.20
2023-03-31T20:54:42.993Z,67.12
2023-03-31T20:57:11.683Z,67.40
2023-03-31T20:59:38.713Z,67.38
2023-03-31T21:02:06.389Z,67.17
2023-03-31T21:04:33.213Z,67.63
2023-03-31T21:06:59.978Z,67.42
2023-03-31T21:09:26.902Z,67.87
2023-03-31T21:11:53.777Z,67.64
2023-03-31T21:14:20.624Z,67.83
2023-03-31T21:16:47.566Z,68.01
2023-03-31T21:19:14.362Z,67.70
2023-03-31T21:21:41.922Z,67.93
2023-03-31T21:24:10.242Z,67.99
2023-03-31T21:26:37.065Z,68.15
2023-03-31T21:29:03.961Z,68.20
2023-03-31T21:31:31.356Z,67.81
2023-03-31T21:34:01.462Z,68.30
2023-03-31T21:36:29.403Z,68.10
2023-03-31T21:38:57.610Z,68.02
2023-03-31T21:41:26.225Z,67.83
2023-03-31T21:43:53.650Z,68.17
2023-03-31T21:46:26.316Z,67.99
2023-03-31T21:48:53.831Z,67.77
2023-03-31T21:51:22.265Z,67.74
2023-03-31T21:53:49.945Z,68.05
2023-03-31T21:56:17.124Z,67.97
2023-03-31T21:58:43.924Z,67.89
2023-03-31T22:01:10.953Z,67.96
2023-03-31T22:03:38.641Z,67.97
2023-03-31T22:06:08.304Z,68.02
2023-03-31T22:08:36.844Z,68.00
2023-03-31T22:11:04.262Z,67.95
2023-03-31T22:13:31.053Z,67.99
2023-03-31T22:16:00.217Z,68.12
2023-03-31T22:18:27.598Z,68.02
2023-03-31T22:20:54.440Z,68.25
2023-03-31T22:23:21.807Z,68.37
2023-03-31T22:25:49.493Z,68.24
2023-03-31T22:28:16.843Z,68.03
2023-03-31T22:30:44.249Z,67.98
2023-03-31T22:33:11.117Z,68.26
2023-03-31T22:35:38.098Z,68.26
2023-03-31T22:38:06.388Z,68.64
2023-03-31T22:40:34.710Z,68.62
2023-03-31T22:43:01.700Z,69.00
2023-03-31T22:45:28.843Z,68.54
2023-03-31T22:47:56.656Z,69.14
2023-03-31T22:50:24.022Z,69.08
2023-03-31T22:52:51.113Z,69.22
2023-03-31T22:55:17.949Z,68.83
2023-03-31T22:57:44.957Z,68.85
2023-03-31T23:00:13.038Z,69.05
2023-03-31T23:02:40.128Z,69.08
2023-03-31T23:05:07.196Z,68.85
2023-03-31T23:07:34.146Z,68.83
2023-03-31T23:10:01.145Z,68.95
2023-03-31T23:12:28.194Z,69.09
2023-03-31T23:14:55.000Z,68.98
2023-03-31T23:17:21.835Z,68.74
2023-03-31T23:19:48.798Z,68.83
2023-03-31T23:22:15.906Z,68.91
2023-03-31T23:24:42.786Z,68.83
2023-03-31T23:27:09.611Z,68.89
2023-03-31T23:29:36.731Z,68.58
2023-03-31T23:32:06.465Z,69.05
2023-03-31T23:34:33.063Z,68.88
2023-03-31T23:36:59.870Z,68.56
2023-03-31T23:39:26.715Z,68.45
2023-03-31T23:41:54.127Z,68.55
2023-03-31T23:44:21.268Z,68.69
2023-03-31T23:46:48.271Z,68.63
2023-03-31T23:49:15.107Z,68.42
2023-03-31T23:51:41.990Z,68.64
2023-03-31T23:54:08.949Z,68.68
2023-03-31T23:56:35.902Z,68.35
2023-03-31T23:59:02.709Z,68.89
